Impacts METAR Board INFO
IDs:

KLAX - Los Angeles Intl, CA, US

Updated at: 0159 UTC 22 Jan 2018
Potential Impact None Slight Moderate High
Time21/13Z 21/14Z 21/15Z 21/16Z 21/17Z 21/18Z 21/19Z 21/20Z 21/21Z 21/22Z 21/23Z 22/00Z 22/01Z
VIS10 10 10 10 10 10 10 10 10 10 10 10 10
CIG-- -- -- -- -- 280 280 280 280 -- -- 250 --
CoverCLRFEWFEWSCTSCTBKNBKNBKNBKNSCTSCTBKNSCT
FltCatVFRVFRVFRVFRVFRVFRVFRVFRVFRVFRVFRVFRVFR
WX--------------------------
WDir700606060701000260280260270270
WSpd4 0 5 4 5 6 3 5 3 7 8 11 11
WGst-- -- -- -- -- -- -- -- -- -- -- -- --
Raw hourly METARs
KLAX 211253Z 07004KT 10SM CLR 07/M03 A3021 RMK AO2 SLP227 T00721028
KLAX 211353Z 00000KT 10SM FEW200 07/M03 A3022 RMK AO2 SLP231 T00671028
KLAX 211453Z 06005KT 10SM FEW200 FEW270 08/M03 A3024 RMK AO2 SLP238 T00831033 53014
KLAX 211553Z 06004KT 10SM FEW200 SCT270 10/M03 A3026 RMK AO2 SLP247 T01001028
KLAX 211653Z 06005KT 10SM SCT280 12/M03 A3030 RMK AO2 SLP258 T01221028
KLAX 211753Z 07006KT 10SM BKN280 14/M02 A3031 RMK AO2 SLP264 T01391022 10139 20067 51026
KLAX 211853Z 10003KT 10SM BKN280 15/M02 A3031 RMK AO2 SLP265 T01501022
KLAX 211953Z VRB05KT 10SM BKN280 16/M02 A3029 RMK AO2 SLP258 T01561017
KLAX 212053Z 26003KT 10SM FEW220 BKN280 17/M01 A3027 RMK AO2 SLP249 T01671011 58014
KLAX 212153Z 28007KT 10SM FEW220 SCT280 17/M02 A3026 RMK AO2 SLP245 T01721022
KLAX 212253Z 26008KT 10SM FEW150 FEW200 SCT250 17/00 A3025 RMK AO2 SLP245 T01670000
KLAX 212353Z 27011KT 10SM FEW150 SCT200 BKN250 16/00 A3026 RMK AO2 SLP249 T01560000 10172 20139 55002
KLAX 220053Z 27011KT 10SM FEW150 SCT200 SCT250 14/02 A3027 RMK AO2 SLP249 T01440022